createdAt,value
2022-09-28T00:00:47.747Z,0.60
2022-09-28T00:03:14.582Z,0.95
2022-09-28T00:05:41.295Z,0.60
2022-09-28T00:08:08.019Z,0.52
2022-09-28T00:10:34.864Z,0.82
2022-09-28T00:13:01.880Z,1.23
2022-09-28T00:15:29.255Z,1.20
2022-09-28T00:17:56.077Z,0.80
2022-09-28T00:20:22.897Z,0.75
2022-09-28T00:22:49.721Z,0.60
2022-09-28T00:25:17.091Z,1.42
2022-09-28T00:27:49.300Z,1.27
2022-09-28T00:30:16.547Z,1.10
2022-09-28T00:32:43.539Z,0.90
2022-09-28T00:35:10.559Z,0.90
2022-09-28T00:37:37.324Z,0.70
2022-09-28T00:40:04.514Z,0.60
2022-09-28T00:42:31.334Z,0.60
2022-09-28T00:44:59.012Z,0.77
2022-09-28T00:47:41.745Z,0.57
2022-09-28T00:50:23.522Z,0.60
2022-09-28T00:53:27.296Z,0.50
2022-09-28T00:55:59.537Z,0.70
2022-09-28T00:58:36.691Z,0.80
2022-09-28T01:01:04.090Z,0.73
2022-09-28T01:03:32.150Z,0.70
2022-09-28T01:06:02.598Z,0.70
2022-09-28T01:08:32.874Z,0.90
2022-09-28T01:11:00.270Z,0.43
2022-09-28T01:13:28.625Z,0.60
2022-09-28T01:16:00.282Z,0.60
2022-09-28T01:19:04.028Z,0.50
2022-09-28T01:21:39.809Z,0.63
2022-09-28T01:24:33.270Z,0.60
2022-09-28T01:27:14.694Z,0.60
2022-09-28T01:30:07.576Z,0.77
2022-09-28T01:32:58.695Z,0.57
2022-09-28T01:35:37.983Z,0.50
2022-09-28T01:38:19.793Z,0.70
2022-09-28T01:40:48.208Z,0.88
2022-09-28T01:43:22.877Z,0.63
2022-09-28T01:46:20.446Z,0.70
2022-09-28T01:48:53.883Z,0.70
2022-09-28T01:52:02.121Z,0.50
2022-09-28T01:54:44.967Z,0.60
2022-09-28T01:57:24.567Z,0.73
2022-09-28T02:00:16.116Z,0.70
2022-09-28T02:02:59.864Z,0.77
2022-09-28T02:05:32.246Z,0.70
2022-09-28T02:08:11.895Z,0.70
2022-09-28T02:10:52.603Z,1.08
2022-09-28T02:13:25.959Z,0.75
2022-09-28T02:16:26.293Z,0.70
2022-09-28T02:18:54.822Z,0.50
2022-09-28T02:21:58.177Z,0.88
2022-09-28T02:24:40.071Z,0.80
2022-09-28T02:27:39.526Z,0.50
2022-09-28T02:30:07.438Z,0.82
2022-09-28T02:32:40.380Z,0.77
2022-09-28T02:35:12.114Z,0.70
2022-09-28T02:37:40.036Z,0.95
2022-09-28T02:40:23.139Z,0.70
2022-09-28T02:43:11.576Z,0.68
2022-09-28T02:45:44.138Z,0.63
2022-09-28T02:48:10.937Z,0.70
2022-09-28T02:51:04.522Z,0.95
2022-09-28T02:54:02.654Z,0.90
2022-09-28T02:57:05.307Z,0.85
2022-09-28T03:00:01.093Z,0.70
2022-09-28T03:02:40.431Z,0.80
2022-09-28T03:05:15.740Z,0.85
2022-09-28T03:07:48.346Z,0.75
2022-09-28T03:10:25.334Z,0.70
2022-09-28T03:12:53.618Z,0.70
2022-09-28T03:15:22.660Z,0.80
2022-09-28T03:17:49.433Z,0.65
2022-09-28T03:20:16.575Z,0.70
2022-09-28T03:22:52.062Z,0.70
2022-09-28T03:25:30.413Z,1.00
2022-09-28T03:28:01.769Z,0.85
2022-09-28T03:30:28.622Z,0.70
2022-09-28T03:32:59.656Z,0.70
2022-09-28T03:35:26.530Z,0.80
2022-09-28T03:37:56.975Z,0.80
2022-09-28T03:40:23.931Z,0.80
2022-09-28T03:42:50.690Z,0.60
2022-09-28T03:45:17.470Z,0.68
2022-09-28T03:47:48.753Z,0.82
2022-09-28T03:50:16.294Z,0.70
2022-09-28T03:52:43.123Z,0.65
2022-09-28T03:55:10.092Z,0.60
2022-09-28T03:57:37.379Z,0.60
2022-09-28T04:00:07.631Z,0.52
2022-09-28T04:02:36.680Z,0.68
2022-09-28T04:05:03.469Z,0.90
2022-09-28T04:07:31.256Z,0.80
2022-09-28T04:09:58.352Z,0.70
2022-09-28T04:12:25.054Z,0.70
2022-09-28T04:14:51.812Z,0.80
2022-09-28T04:17:18.561Z,0.80
2022-09-28T04:19:45.370Z,0.85
2022-09-28T04:22:12.158Z,1.02
2022-09-28T04:24:39.760Z,0.93
2022-09-28T04:27:25.673Z,0.88
2022-09-28T04:29:53.078Z,0.65
2022-09-28T04:32:22.151Z,0.82
2022-09-28T04:34:49.533Z,0.90
2022-09-28T04:37:16.271Z,1.23
2022-09-28T04:39:48.048Z,0.90
2022-09-28T04:42:15.889Z,0.95
2022-09-28T04:44:42.714Z,0.80
2022-09-28T04:47:09.501Z,1.17
2022-09-28T04:49:38.455Z,0.93
2022-09-28T04:52:06.925Z,0.77
2022-09-28T04:54:34.276Z,1.00
2022-09-28T04:57:01.842Z,0.90
2022-09-28T04:59:28.858Z,1.05
2022-09-28T05:01:55.671Z,0.80
2022-09-28T05:04:26.012Z,1.10
2022-09-28T05:06:52.979Z,1.55
2022-09-28T05:09:19.749Z,1.60
2022-09-28T05:11:46.709Z,1.02
2022-09-28T05:14:13.608Z,1.25
2022-09-28T05:16:40.399Z,1.00
2022-09-28T05:19:08.207Z,1.50
2022-09-28T05:21:36.060Z,1.10
2022-09-28T05:24:08.240Z,1.38
2022-09-28T05:26:35.134Z,1.55
2022-09-28T05:29:01.954Z,1.77
2022-09-28T05:31:29.112Z,1.77
2022-09-28T05:33:57.765Z,1.48
2022-09-28T05:36:27.430Z,1.42
2022-09-28T05:38:54.250Z,1.20
2022-09-28T05:41:21.541Z,1.50
2022-09-28T05:43:48.436Z,1.20
2022-09-28T05:46:15.220Z,1.70
2022-09-28T05:48:41.986Z,1.10
2022-09-28T05:51:10.414Z,1.35
2022-09-28T05:53:39.356Z,5.07
2022-09-28T05:56:06.452Z,4.38
2022-09-28T05:58:33.202Z,1.65
2022-09-28T06:01:00.417Z,1.30
2022-09-28T06:03:27.397Z,1.10
2022-09-28T06:05:54.871Z,1.00
2022-09-28T06:08:21.924Z,1.20
2022-09-28T06:10:48.895Z,1.08
2022-09-28T06:13:16.924Z,1.90
2022-09-28T06:15:46.344Z,1.33
2022-09-28T06:18:15.454Z,1.20
2022-09-28T06:20:43.095Z,1.30
2022-09-28T06:23:13.684Z,1.13
2022-09-28T06:25:40.775Z,1.10
2022-09-28T06:28:11.361Z,1.15
2022-09-28T06:30:40.959Z,0.93
2022-09-28T06:33:10.905Z,1.10
2022-09-28T06:35:37.730Z,0.95
2022-09-28T06:38:04.924Z,1.05
2022-09-28T06:40:32.116Z,1.33
2022-09-28T06:43:00.097Z,1.25
2022-09-28T06:45:28.462Z,0.90
2022-09-28T06:48:00.664Z,1.10
2022-09-28T06:50:32.941Z,1.60
2022-09-28T06:53:00.996Z,1.10
2022-09-28T06:55:29.690Z,1.20
2022-09-28T06:58:02.454Z,1.60
2022-09-28T07:00:31.270Z,1.50
2022-09-28T07:02:58.075Z,1.50
2022-09-28T07:05:27.492Z,1.10
2022-09-28T07:07:56.768Z,3.00
2022-09-28T07:10:24.872Z,3.03
2022-09-28T07:12:52.337Z,1.73
2022-09-28T07:15:20.415Z,1.20
2022-09-28T07:18:00.019Z,1.33
2022-09-28T07:20:29.516Z,1.10
2022-09-28T07:23:11.885Z,1.23
2022-09-28T07:25:45.648Z,1.42
2022-09-28T07:28:13.181Z,1.55
2022-09-28T07:30:40.234Z,1.35
2022-09-28T07:33:08.233Z,1.27
2022-09-28T07:35:38.777Z,1.17
2022-09-28T07:38:07.601Z,1.10
2022-09-28T07:40:54.365Z,1.33
2022-09-28T07:43:22.276Z,1.35
2022-09-28T07:45:50.855Z,1.33
2022-09-28T07:48:18.838Z,1.30
2022-09-28T07:50:53.806Z,3.13
2022-09-28T07:53:22.457Z,2.38
2022-09-28T07:56:06.279Z,1.50
2022-09-28T07:58:38.053Z,1.20
2022-09-28T08:01:10.770Z,1.10
2022-09-28T08:03:38.531Z,1.30
2022-09-28T08:06:07.617Z,1.35
2022-09-28T08:08:36.181Z,1.20
2022-09-28T08:11:03.466Z,1.35
2022-09-28T08:13:31.187Z,1.10
2022-09-28T08:16:02.127Z,1.20
2022-09-28T08:18:29.423Z,0.90
2022-09-28T08:21:14.989Z,1.30
2022-09-28T08:23:42.018Z,1.15
2022-09-28T08:26:13.319Z,1.42
2022-09-28T08:28:43.246Z,1.20
2022-09-28T08:31:10.286Z,1.13
2022-09-28T08:33:37.330Z,1.30
2022-09-28T08:36:05.270Z,1.27
2022-09-28T08:38:33.288Z,1.02
2022-09-28T08:41:24.734Z,1.00
2022-09-28T08:44:00.761Z,1.10
2022-09-28T08:46:57.767Z,1.10
2022-09-28T08:49:32.011Z,0.88
2022-09-28T08:52:18.834Z,0.95
2022-09-28T08:55:02.537Z,0.90
2022-09-28T08:57:45.273Z,1.05
2022-09-28T09:00:32.305Z,0.85
2022-09-28T09:02:59.785Z,0.88
2022-09-28T09:05:58.201Z,0.50
2022-09-28T09:08:39.811Z,0.80
2022-09-28T09:11:13.490Z,0.85
2022-09-28T09:13:50.355Z,0.85
2022-09-28T09:16:51.981Z,0.70
2022-09-28T09:19:36.275Z,1.63
2022-09-28T09:22:36.262Z,0.80
2022-09-28T09:25:28.798Z,0.90
2022-09-28T09:28:11.519Z,0.90
2022-09-28T09:31:11.257Z,0.60
2022-09-28T09:34:03.445Z,0.70
2022-09-28T09:37:03.533Z,0.60
2022-09-28T09:39:51.724Z,0.70
2022-09-28T09:42:40.612Z,0.70
2022-09-28T09:45:34.161Z,0.98
2022-09-28T09:48:06.472Z,0.63
2022-09-28T09:50:52.603Z,0.50
2022-09-28T09:53:36.193Z,0.73
2022-09-28T09:56:38.822Z,0.80
2022-09-28T09:59:16.689Z,0.80
2022-09-28T10:01:43.871Z,0.52
2022-09-28T10:04:27.416Z,0.70
2022-09-28T10:06:59.365Z,0.60
2022-09-28T10:09:36.710Z,0.60
2022-09-28T10:12:04.109Z,0.60
2022-09-28T10:14:33.007Z,0.60
2022-09-28T10:17:03.893Z,0.55
2022-09-28T10:19:35.475Z,0.63
2022-09-28T10:22:06.058Z,0.80
2022-09-28T10:24:38.741Z,0.75
2022-09-28T10:27:11.346Z,0.60
2022-09-28T10:29:55.577Z,0.60
2022-09-28T10:32:28.973Z,0.68
2022-09-28T10:35:14.853Z,0.70
2022-09-28T10:38:06.676Z,0.88
2022-09-28T10:40:33.422Z,0.82
2022-09-28T10:43:07.497Z,1.10
2022-09-28T10:48:07.454Z,0.60
2022-09-28T10:50:35.045Z,0.93
2022-09-28T10:53:17.292Z,0.70
2022-09-28T10:56:00.026Z,0.60
2022-09-28T10:58:39.479Z,0.75
2022-09-28T11:01:12.461Z,0.60
2022-09-28T11:03:57.792Z,0.63
2022-09-28T11:06:30.381Z,0.50
2022-09-28T11:09:00.643Z,0.50
2022-09-28T11:11:29.302Z,0.70
2022-09-28T11:14:03.917Z,0.60
2022-09-28T11:16:36.402Z,0.50
2022-09-28T11:19:21.739Z,0.60
2022-09-28T11:21:48.720Z,0.88
2022-09-28T11:24:20.854Z,0.80
2022-09-28T11:26:52.122Z,0.80
2022-09-28T11:29:33.734Z,0.70
2022-09-28T11:32:06.884Z,0.90
2022-09-28T11:34:58.046Z,0.60
2022-09-28T11:37:44.239Z,0.90
2022-09-28T11:40:20.298Z,0.60
2022-09-28T11:43:12.293Z,0.90
2022-09-28T11:45:52.259Z,0.60
2022-09-28T11:48:25.557Z,0.70
2022-09-28T11:51:02.283Z,0.80
2022-09-28T11:53:51.185Z,0.70
2022-09-28T11:56:41.817Z,0.80
2022-09-28T11:59:29.218Z,0.63
2022-09-28T12:02:41.603Z,1.00
2022-09-28T12:05:23.010Z,0.73
2022-09-28T12:08:25.513Z,0.90
2022-09-28T12:11:07.443Z,0.95
2022-09-28T12:13:38.549Z,1.00
2022-09-28T12:17:07.885Z,1.00
2022-09-28T12:20:13.294Z,0.93
2022-09-28T12:22:46.640Z,1.05
2022-09-28T12:25:18.929Z,1.00
2022-09-28T12:27:48.139Z,1.05
2022-09-28T12:30:25.469Z,2.10
2022-09-28T12:33:15.387Z,2.50
2022-09-28T12:36:00.222Z,1.10
2022-09-28T12:39:17.994Z,1.20
2022-09-28T12:41:55.250Z,1.20
2022-09-28T12:44:31.432Z,1.00
2022-09-28T12:47:24.277Z,0.90
2022-09-28T12:53:24.158Z,1.10
2022-09-28T12:56:04.194Z,0.90
2022-09-28T12:58:50.193Z,1.15
2022-09-28T13:01:51.655Z,1.23
2022-09-28T13:04:44.403Z,1.10
2022-09-28T13:07:30.441Z,1.10
2022-09-28T13:10:18.441Z,1.10
2022-09-28T13:13:03.711Z,1.50
2022-09-28T13:15:57.531Z,3.55
2022-09-28T13:18:56.630Z,1.90
2022-09-28T13:21:41.500Z,1.55
2022-09-28T13:24:31.657Z,0.95
2022-09-28T13:27:07.415Z,1.83
2022-09-28T13:29:35.238Z,1.40
2022-09-28T13:32:04.111Z,1.30
2022-09-28T13:34:36.633Z,1.33
2022-09-28T13:37:20.264Z,1.52
2022-09-28T13:39:52.740Z,1.05
2022-09-28T13:42:29.445Z,1.38
2022-09-28T13:45:22.521Z,1.20
2022-09-28T13:47:52.787Z,1.30
2022-09-28T13:50:32.108Z,1.00
2022-09-28T13:53:23.366Z,1.17
2022-09-28T13:55:55.922Z,1.25
2022-09-28T13:58:38.343Z,1.45
2022-09-28T14:01:13.217Z,1.15
2022-09-28T14:03:57.324Z,1.25
2022-09-28T14:06:24.392Z,1.67
2022-09-28T14:09:09.951Z,2.05
2022-09-28T14:11:36.864Z,1.85
2022-09-28T14:14:14.701Z,1.65
2022-09-28T14:16:42.433Z,1.70
2022-09-28T14:19:23.447Z,1.30
2022-09-28T14:22:20.291Z,1.50
2022-09-28T14:25:15.221Z,2.33
2022-09-28T14:27:51.356Z,2.05
2022-09-28T14:30:25.109Z,1.73
2022-09-28T14:32:59.871Z,2.30
2022-09-28T14:35:31.769Z,2.05
2022-09-28T14:38:23.311Z,1.92
2022-09-28T14:41:09.899Z,2.10
2022-09-28T14:43:48.463Z,1.70
2022-09-28T14:46:15.808Z,1.80
2022-09-28T14:48:48.591Z,1.27
2022-09-28T14:51:27.277Z,1.50
2022-09-28T14:54:00.337Z,1.33
2022-09-28T14:56:32.832Z,1.13
2022-09-28T14:59:01.595Z,1.73
2022-09-28T15:01:30.241Z,1.58
2022-09-28T15:04:02.887Z,1.50
2022-09-28T15:06:50.575Z,2.65
2022-09-28T15:09:35.352Z,1.48
2022-09-28T15:12:13.391Z,1.88
2022-09-28T15:14:49.180Z,1.52
2022-09-28T15:17:23.389Z,1.80
2022-09-28T15:20:24.171Z,1.60
2022-09-28T15:22:57.361Z,2.08
2022-09-28T15:25:27.095Z,1.30
2022-09-28T15:28:04.651Z,2.45
2022-09-28T15:30:39.793Z,1.77
2022-09-28T15:33:41.560Z,1.73
2022-09-28T15:36:19.579Z,2.63
2022-09-28T15:39:32.286Z,2.33
2022-09-28T15:42:17.876Z,2.92
2022-09-28T15:45:14.253Z,9.15
2022-09-28T15:47:49.654Z,4.90
2022-09-28T15:50:31.713Z,3.10
2022-09-28T15:53:05.881Z,1.67
2022-09-28T15:55:42.939Z,1.60
2022-09-28T15:58:12.692Z,1.52
2022-09-28T16:00:42.544Z,1.25
2022-09-28T16:03:09.361Z,1.70
2022-09-28T16:05:55.404Z,1.40
2022-09-28T16:08:36.820Z,2.00
2022-09-28T16:11:12.323Z,2.35
2022-09-28T16:14:18.480Z,2.13
2022-09-28T16:16:52.487Z,1.63
2022-09-28T16:19:29.047Z,2.17
2022-09-28T16:21:57.858Z,1.60
2022-09-28T16:24:31.338Z,1.75
2022-09-28T16:27:24.195Z,1.65
2022-09-28T16:30:15.971Z,1.67
2022-09-28T16:32:59.395Z,1.95
2022-09-28T16:35:27.730Z,3.13
2022-09-28T16:37:59.575Z,1.50
2022-09-28T16:40:27.483Z,1.60
2022-09-28T16:42:59.524Z,1.10
2022-09-28T16:45:26.504Z,1.15
2022-09-28T16:47:56.440Z,1.20
2022-09-28T16:50:24.614Z,2.35
2022-09-28T16:53:18.315Z,2.13
2022-09-28T16:55:46.813Z,1.70
2022-09-28T16:58:13.527Z,2.55
2022-09-28T17:00:43.564Z,2.20
2022-09-28T17:03:14.158Z,2.50
2022-09-28T17:05:41.038Z,2.38
2022-09-28T17:08:17.465Z,1.63
2022-09-28T17:11:13.883Z,2.38
2022-09-28T17:13:42.256Z,5.95
2022-09-28T17:16:18.483Z,3.78
2022-09-28T17:18:46.300Z,2.08
2022-09-28T17:21:15.938Z,1.40
2022-09-28T17:23:43.752Z,1.33
2022-09-28T17:26:30.713Z,1.70
2022-09-28T17:29:02.594Z,1.70
2022-09-28T17:31:31.254Z,1.55
2022-09-28T17:33:58.324Z,1.92
2022-09-28T17:36:27.732Z,1.52
2022-09-28T17:38:58.633Z,1.67
2022-09-28T17:41:25.321Z,5.35
2022-09-28T17:43:52.064Z,6.65
2022-09-28T17:46:26.387Z,8.70
2022-09-28T17:48:54.394Z,13.05
2022-09-28T17:51:24.486Z,6.93
2022-09-28T17:53:53.703Z,1.92
2022-09-28T17:56:20.497Z,1.77
2022-09-28T17:58:47.861Z,1.60
2022-09-28T18:01:14.861Z,0.90
2022-09-28T18:03:42.225Z,0.95
2022-09-28T18:06:15.001Z,1.10
2022-09-28T18:08:45.075Z,0.90
2022-09-28T18:11:12.527Z,1.05
2022-09-28T18:13:39.536Z,2.80
2022-09-28T18:16:06.890Z,3.42
2022-09-28T18:18:36.720Z,5.43
2022-09-28T18:21:05.108Z,3.60
2022-09-28T18:23:31.850Z,2.70
2022-09-28T18:25:59.474Z,2.30
2022-09-28T18:28:26.235Z,1.55
2022-09-28T18:30:53.354Z,1.67
2022-09-28T18:33:20.122Z,1.30
2022-09-28T18:35:55.901Z,1.88
2022-09-28T18:38:22.707Z,1.73
2022-09-28T18:40:49.935Z,2.00
2022-09-28T18:43:16.782Z,1.55
2022-09-28T18:45:44.592Z,3.35
2022-09-28T18:48:11.606Z,2.03
2022-09-28T18:50:38.364Z,2.80
2022-09-28T18:53:14.386Z,3.40
2022-09-28T18:55:44.742Z,4.70
2022-09-28T18:58:12.512Z,3.17
2022-09-28T19:00:40.815Z,2.42
2022-09-28T19:03:11.027Z,2.75
2022-09-28T19:05:44.254Z,2.55
2022-09-28T19:08:12.515Z,3.20
2022-09-28T19:10:39.296Z,2.00
2022-09-28T19:13:07.288Z,2.58
2022-09-28T19:15:34.697Z,2.17
2022-09-28T19:18:06.180Z,2.15
2022-09-28T19:20:33.955Z,2.03
2022-09-28T19:23:00.845Z,2.10
2022-09-28T19:25:27.594Z,2.08
2022-09-28T19:27:54.772Z,1.73
2022-09-28T19:30:25.299Z,2.20
2022-09-28T19:32:51.961Z,2.10
2022-09-28T19:35:18.633Z,2.63
2022-09-28T19:37:46.753Z,4.55
2022-09-28T19:40:13.793Z,2.95
2022-09-28T19:42:41.652Z,2.85
2022-09-28T19:45:09.049Z,3.13
2022-09-28T19:47:37.456Z,3.78
2022-09-28T19:50:05.978Z,3.60
2022-09-28T19:52:32.713Z,3.30
2022-09-28T19:55:01.248Z,3.35
2022-09-28T19:57:30.713Z,2.58
2022-09-28T20:00:02.108Z,2.35
2022-09-28T20:02:29.463Z,1.92
2022-09-28T20:04:56.301Z,1.77
2022-09-28T20:07:23.417Z,2.10
2022-09-28T20:09:50.100Z,2.00
2022-09-28T20:12:16.823Z,1.83
2022-09-28T20:14:43.514Z,1.90
2022-09-28T20:17:10.287Z,2.03
2022-09-28T20:19:37.590Z,1.85
2022-09-28T20:22:04.721Z,1.75
2022-09-28T20:24:32.293Z,1.67
2022-09-28T20:26:59.348Z,1.52
2022-09-28T20:29:26.732Z,1.75
2022-09-28T20:31:53.493Z,1.67
2022-09-28T20:34:20.187Z,1.65
2022-09-28T20:36:49.571Z,1.48
2022-09-28T20:39:16.346Z,1.80
2022-09-28T20:41:43.241Z,1.80
2022-09-28T20:44:10.085Z,1.52
2022-09-28T20:46:37.313Z,1.50
2022-09-28T20:49:04.997Z,1.55
2022-09-28T20:51:32.051Z,1.65
2022-09-28T20:53:59.772Z,1.40
2022-09-28T20:56:37.486Z,1.80
2022-09-28T20:59:09.578Z,1.60
2022-09-28T21:01:37.709Z,1.88
2022-09-28T21:04:07.498Z,1.67
2022-09-28T21:06:36.655Z,1.60
2022-09-28T21:09:04.967Z,1.90
2022-09-28T21:11:32.190Z,1.52
2022-09-28T21:14:01.665Z,1.75
2022-09-28T21:16:30.873Z,1.90
2022-09-28T21:18:58.427Z,1.65
2022-09-28T21:21:25.942Z,1.88
2022-09-28T21:23:57.465Z,1.60
2022-09-28T21:26:28.182Z,1.65
2022-09-28T21:28:57.889Z,1.63
2022-09-28T21:31:29.153Z,1.48
2022-09-28T21:33:58.251Z,1.63
2022-09-28T21:36:25.913Z,1.88
2022-09-28T21:38:55.150Z,1.65
2022-09-28T21:41:22.126Z,1.80
2022-09-28T21:43:50.107Z,1.90
2022-09-28T21:46:17.681Z,1.90
2022-09-28T21:48:44.572Z,1.58
2022-09-28T21:51:14.428Z,1.65
2022-09-28T21:53:43.052Z,1.85
2022-09-28T21:56:11.907Z,1.48
2022-09-28T21:58:40.068Z,1.52
2022-09-28T22:01:15.490Z,1.50
2022-09-28T22:03:47.394Z,1.45
2022-09-28T22:06:16.341Z,1.42
2022-09-28T22:08:43.449Z,1.60
2022-09-28T22:11:15.165Z,1.50
2022-09-28T22:13:47.162Z,1.60
2022-09-28T22:16:16.083Z,1.95
2022-09-28T22:18:43.275Z,1.70
2022-09-28T22:21:14.766Z,1.70
2022-09-28T22:23:42.997Z,1.90
2022-09-28T22:26:14.636Z,1.70
2022-09-28T22:28:47.242Z,1.67
2022-09-28T22:31:14.582Z,2.00
2022-09-28T22:33:43.183Z,2.10
2022-09-28T22:36:10.808Z,1.98
2022-09-28T22:38:37.893Z,1.80
2022-09-28T22:41:05.882Z,2.13
2022-09-28T22:43:33.157Z,1.60
2022-09-28T22:46:11.541Z,1.92
2022-09-28T22:48:38.912Z,1.40
2022-09-28T22:51:07.153Z,1.63
2022-09-28T22:53:36.345Z,1.70
2022-09-28T22:56:05.599Z,1.88
2022-09-28T22:58:34.059Z,1.90
2022-09-28T23:01:14.715Z,1.90
2022-09-28T23:03:45.447Z,1.80
2022-09-28T23:06:16.068Z,2.22
2022-09-28T23:08:44.881Z,2.17
2022-09-28T23:11:11.859Z,1.75
2022-09-28T23:13:38.664Z,2.00
2022-09-28T23:16:08.054Z,2.30
2022-09-28T23:18:38.424Z,2.00
2022-09-28T23:21:07.339Z,1.55
2022-09-28T23:23:34.386Z,1.90
2022-09-28T23:26:09.504Z,1.77
2022-09-28T23:28:36.205Z,2.05
2022-09-28T23:31:11.653Z,2.60
2022-09-28T23:33:38.436Z,2.00
2022-09-28T23:36:06.928Z,1.90
2022-09-28T23:38:33.618Z,1.60
2022-09-28T23:41:00.664Z,2.20
2022-09-28T23:43:29.058Z,1.83
2022-09-28T23:45:56.189Z,1.80
2022-09-28T23:48:24.142Z,2.13
2022-09-28T23:50:50.942Z,1.73
2022-09-28T23:53:18.627Z,2.03
2022-09-28T23:55:45.431Z,1.80
2022-09-28T23:58:16.576Z,2.20
